Time;durP1;ratioP1;P1;durP2;ratioP2;P2;SDS_P1;SDS_P2;PMS_P1;PMS_P2;Temp;Humidity;BMP_temperature;BMP_pressure;BME280_temperature;BME280_humidity;BME280_pressure;Samples;Min_cycle;Max_cycle;Signal;HPM_P1;HPM_P2
2023/01/16 00:01:29;;;;;;;5.80;4.43;;;4.80;99.90;;;;;;5023614;28;20206;-81
2023/01/16 00:03:56;;;;;;;6.90;4.50;;;4.80;99.90;;;;;;5042986;28;20316;-82
2023/01/16 00:06:23;;;;;;;4.33;3.53;;;4.80;99.90;;;;;;5043047;28;20244;-84
2023/01/16 00:08:50;;;;;;;5.20;4.00;;;4.80;99.90;;;;;;5042317;28;20247;-80
2023/01/16 00:11:18;;;;;;;6.50;4.80;;;4.70;99.90;;;;;;5045054;28;20198;-80
2023/01/16 00:13:45;;;;;;;5.97;4.47;;;4.70;99.90;;;;;;5048126;28;20228;-79
2023/01/16 00:16:12;;;;;;;4.83;3.77;;;4.70;99.90;;;;;;5046368;28;20209;-79
2023/01/16 00:18:41;;;;;;;4.27;3.87;;;4.70;99.90;;;;;;5047104;28;20520;-81
2023/01/16 00:21:08;;;;;;;4.50;3.97;;;4.60;99.90;;;;;;5047762;28;20198;-80
2023/01/16 00:23:36;;;;;;;4.77;3.47;;;4.70;99.90;;;;;;5051133;28;20291;-81
2023/01/16 00:26:06;;;;;;;4.83;3.60;;;4.60;99.90;;;;;;5046668;28;20214;-80
2023/01/16 00:28:36;;;;;;;5.73;3.90;;;4.60;99.90;;;;;;5048176;28;20198;-79
2023/01/16 00:31:03;;;;;;;4.13;3.73;;;4.50;99.90;;;;;;5048042;28;20206;-81
2023/01/16 00:33:30;;;;;;;6.23;4.00;;;4.50;99.90;;;;;;5047775;28;20209;-79
2023/01/16 00:35:57;;;;;;;5.40;3.80;;;4.50;99.90;;;;;;5031702;28;20305;-80
2023/01/16 00:38:24;;;;;;;5.63;4.20;;;4.50;99.90;;;;;;5027619;28;20293;-81
2023/01/16 00:40:51;;;;;;;5.13;4.00;;;4.40;99.90;;;;;;5028235;28;20509;-81
2023/01/16 00:43:18;;;;;;;5.23;4.00;;;4.40;99.90;;;;;;5047418;28;20277;-80
2023/01/16 00:45:46;;;;;;;5.30;4.77;;;4.50;99.90;;;;;;5043320;28;20230;-80
2023/01/16 00:48:13;;;;;;;8.10;4.83;;;4.50;99.90;;;;;;5026961;28;20283;-81
2023/01/16 00:50:40;;;;;;;5.13;4.23;;;4.50;99.90;;;;;;5026648;28;20205;-81
2023/01/16 00:53:07;;;;;;;8.73;4.67;;;4.40;99.90;;;;;;5027416;28;20289;-83
2023/01/16 00:55:36;;;;;;;6.00;4.37;;;4.40;99.90;;;;;;5027261;28;20289;-81
2023/01/16 00:58:04;;;;;;;6.10;5.17;;;4.40;99.90;;;;;;5027003;28;20199;-81
2023/01/16 01:00:30;;;;;;;9.10;5.77;;;4.40;99.90;;;;;;5026799;28;20488;-83
2023/01/16 01:02:59;;;;;;;6.20;5.60;;;4.50;99.90;;;;;;5027519;28;20212;-80
2023/01/16 01:05:26;;;;;;;8.43;5.57;;;4.50;99.90;;;;;;5028027;28;20268;-83
2023/01/16 01:07:52;;;;;;;8.17;6.47;;;4.50;99.90;;;;;;5027552;28;20541;-80
2023/01/16 01:10:20;;;;;;;11.17;6.87;;;4.50;99.90;;;;;;5033992;28;20217;-81
2023/01/16 01:12:46;;;;;;;10.17;6.50;;;4.50;99.90;;;;;;5046897;28;20249;-83
2023/01/16 01:15:13;;;;;;;10.07;6.63;;;4.50;99.90;;;;;;5035900;28;20207;-84
2023/01/16 01:17:40;;;;;;;9.43;6.63;;;4.50;99.90;;;;;;5026191;28;20206;-87
2023/01/16 01:20:10;;;;;;;11.47;7.13;;;4.50;99.90;;;;;;5027028;28;20840;-81
2023/01/16 01:22:37;;;;;;;9.60;7.90;;;4.50;99.90;;;;;;5025863;28;20199;-81
2023/01/16 01:25:04;;;;;;;12.13;7.37;;;4.50;99.90;;;;;;5026153;28;20234;-84
2023/01/16 01:27:31;;;;;;;10.00;8.17;;;4.50;99.90;;;;;;5029568;28;20319;-83
2023/01/16 01:29:58;;;;;;;11.77;7.77;;;4.40;99.90;;;;;;5028161;28;20289;-84
2023/01/16 01:32:25;;;;;;;10.27;7.03;;;4.40;99.90;;;;;;5024915;28;20201;-84
2023/01/16 01:34:52;;;;;;;9.20;6.80;;;4.30;99.90;;;;;;5023495;28;20203;-83
2023/01/16 01:37:20;;;;;;;10.27;7.37;;;4.30;99.90;;;;;;5027529;28;20211;-86
2023/01/16 01:39:47;;;;;;;8.73;6.97;;;4.30;99.90;;;;;;5029724;28;20298;-86
2023/01/16 01:45:01;;;;;;;11.03;8.43;;;4.30;99.90;;;;;;5048618;28;20221;-86
2023/01/16 01:47:33;;;;;;;9.33;8.00;;;4.30;99.90;;;;;;5048964;28;20210;-87
2023/01/16 01:50:03;;;;;;;14.40;9.00;;;4.20;99.90;;;;;;5049167;28;20764;-86
2023/01/16 01:52:34;;;;;;;12.53;9.23;;;4.20;99.90;;;;;;5047639;28;20577;-87
2023/01/16 01:55:05;;;;;;;11.73;8.57;;;4.20;99.90;;;;;;5030297;28;20586;-86
2023/01/16 01:57:36;;;;;;;10.70;8.73;;;4.10;99.90;;;;;;5028060;28;20605;-87
2023/01/16 02:00:09;;;;;;;13.43;9.23;;;4.10;99.90;;;;;;5027111;28;20226;-86
2023/01/16 02:02:42;;;;;;;10.27;7.87;;;4.10;99.90;;;;;;5042874;28;20202;-87
2023/01/16 02:05:12;;;;;;;12.63;8.50;;;4.10;99.90;;;;;;5027771;28;20230;-86
2023/01/16 02:07:41;;;;;;;11.17;8.43;;;4.10;99.90;;;;;;5028147;28;20561;-87
2023/01/16 02:10:16;;;;;;;11.13;8.43;;;4.10;99.90;;;;;;5038331;28;20918;-86
2023/01/16 02:12:43;;;;;;;14.73;10.43;;;4.20;99.90;;;;;;5046151;28;20229;-87
2023/01/16 02:15:10;;;;;;;12.97;9.60;;;4.10;99.90;;;;;;5028464;28;20775;-87
2023/01/16 02:20:30;;;;;;;12.87;8.20;;;4.10;99.90;;;;;;5030195;28;20221;-86
2023/01/16 02:23:46;;;;;;;14.27;8.63;;;4.20;99.90;;;;;;5030840;28;20281;-88
2023/01/16 02:26:47;;;;;;;14.43;9.70;;;4.10;99.90;;;;;;5031091;28;20206;-87
2023/01/16 02:30:05;;;;;;;10.57;7.93;;;4.10;99.90;;;;;;5009121;28;20286;-87
2023/01/16 02:32:52;;;;;;;12.00;8.20;;;4.10;99.90;;;;;;5030724;28;20506;-85
2023/01/16 02:35:50;;;;;;;9.60;8.47;;;4.00;99.90;;;;;;5031187;28;20849;-87
2023/01/16 02:38:22;;;;;;;10.93;8.20;;;4.00;99.90;;;;;;5040995;28;20289;-86
2023/01/16 02:40:58;;;;;;;12.77;8.03;;;4.00;99.90;;;;;;5050624;28;20372;-85
2023/01/16 02:43:33;;;;;;;13.90;8.77;;;3.90;99.90;;;;;;5050060;28;20194;-86
2023/01/16 02:46:10;;;;;;;13.80;8.67;;;4.00;99.90;;;;;;5045884;28;20229;-82
2023/01/16 02:48:48;;;;;;;9.27;7.63;;;4.00;99.90;;;;;;5032495;28;20214;-82
2023/01/16 02:51:24;;;;;;;14.60;8.73;;;3.90;99.90;;;;;;5028765;28;20286;-87
2023/01/16 02:54:02;;;;;;;17.37;8.20;;;4.00;99.90;;;;;;5029915;28;20224;-85
2023/01/16 02:56:38;;;;;;;14.73;8.77;;;4.00;99.90;;;;;;5029393;28;20237;-82
2023/01/16 02:59:06;;;;;;;19.10;10.70;;;4.00;99.90;;;;;;5029749;28;20281;-88
2023/01/16 03:01:35;;;;;;;19.00;11.83;;;4.00;99.90;;;;;;5029474;28;20855;-83
2023/01/16 03:04:41;;;;;;;12.67;10.47;;;4.00;99.90;;;;;;5029464;28;20211;-86
2023/01/16 03:07:22;;;;;;;14.97;10.83;;;4.00;99.90;;;;;;5031139;28;20607;-87
2023/01/16 03:09:56;;;;;;;16.43;11.33;;;4.00;99.90;;;;;;5030379;28;20450;-86
2023/01/16 03:12:35;;;;;;;18.97;11.97;;;4.00;99.90;;;;;;5025469;28;20671;-80
2023/01/16 03:15:09;;;;;;;14.83;11.83;;;4.00;99.90;;;;;;5026370;28;20203;-82
2023/01/16 03:17:44;;;;;;;17.00;12.07;;;4.00;99.90;;;;;;5026385;28;20206;-81
2023/01/16 03:20:30;;;;;;;17.53;11.63;;;4.10;99.90;;;;;;5024905;28;20932;-81
2023/01/16 03:23:06;;;;;;;16.83;12.07;;;4.10;99.90;;;;;;5025373;28;20182;-81
2023/01/16 03:25:40;;;;;;;16.87;11.03;;;4.10;99.90;;;;;;5024952;28;20229;-82
2023/01/16 03:28:12;;;;;;;21.07;11.67;;;4.10;99.90;;;;;;5023802;28;20194;-81
2023/01/16 03:30:52;;;;;;;17.17;11.27;;;4.10;99.90;;;;;;5035723;28;20256;-83
2023/01/16 03:33:29;;;;;;;18.27;13.07;;;4.10;99.90;;;;;;5045013;28;20671;-82
2023/01/16 03:36:02;;;;;;;18.63;12.07;;;4.00;99.90;;;;;;5047111;28;20225;-86
2023/01/16 03:38:31;;;;;;;15.77;10.97;;;4.00;99.90;;;;;;5047996;28;20296;-88
2023/01/16 03:41:01;;;;;;;16.83;11.63;;;4.00;99.90;;;;;;5050173;28;20269;-87
2023/01/16 03:43:32;;;;;;;16.60;11.43;;;4.00;99.90;;;;;;5049191;28;20206;-87
2023/01/16 03:46:04;;;;;;;16.90;12.00;;;4.00;99.90;;;;;;5030923;28;20216;-84
2023/01/16 03:48:37;;;;;;;16.20;11.50;;;4.00;99.90;;;;;;5033706;28;20267;-82
2023/01/16 03:51:08;;;;;;;20.00;12.83;;;4.00;99.90;;;;;;5033445;28;20292;-84
2023/01/16 03:53:39;;;;;;;17.57;11.40;;;4.00;99.90;;;;;;5029311;28;20195;-84
2023/01/16 03:56:14;;;;;;;19.07;11.53;;;4.00;99.90;;;;;;5027166;28;20364;-86
2023/01/16 03:58:46;;;;;;;20.57;12.10;;;4.00;99.90;;;;;;5028182;28;20216;-80
2023/01/16 04:01:21;;;;;;;18.60;11.13;;;4.10;99.90;;;;;;5028479;28;20654;-85
2023/01/16 04:03:58;;;;;;;16.37;11.53;;;4.10;99.90;;;;;;5027099;28;20325;-80
2023/01/16 04:06:33;;;;;;;21.00;12.10;;;4.10;99.90;;;;;;5029684;28;20229;-80
2023/01/16 04:09:04;;;;;;;16.43;9.93;;;4.10;99.90;;;;;;5027841;28;20245;-80
2023/01/16 04:11:34;;;;;;;17.10;9.80;;;4.10;99.90;;;;;;5010852;28;20225;-80
2023/01/16 04:14:04;;;;;;;15.47;10.17;;;4.10;99.90;;;;;;5027977;28;20226;-81
2023/01/16 04:16:31;;;;;;;14.80;9.03;;;4.10;99.90;;;;;;5025731;28;20210;-81
2023/01/16 04:18:59;;;;;;;16.47;8.87;;;4.10;99.90;;;;;;5029585;28;20317;-77
2023/01/16 04:21:31;;;;;;;13.67;8.90;;;4.10;99.90;;;;;;5030167;28;20615;-84
2023/01/16 04:24:01;;;;;;;12.83;8.20;;;4.10;99.90;;;;;;5032596;28;20218;-82
2023/01/16 04:26:28;;;;;;;14.40;9.10;;;4.10;99.90;;;;;;5032190;28;20230;-86
2023/01/16 04:28:55;;;;;;;14.70;8.97;;;4.10;99.90;;;;;;5032074;28;20213;-82
2023/01/16 04:31:24;;;;;;;19.73;9.77;;;4.00;99.90;;;;;;5043589;28;20221;-79
2023/01/16 04:33:51;;;;;;;18.37;10.70;;;4.00;99.90;;;;;;5043926;28;20793;-79
2023/01/16 04:36:18;;;;;;;18.67;9.87;;;4.00;99.90;;;;;;5028237;28;20191;-79
2023/01/16 04:38:46;;;;;;;18.37;10.60;;;4.00;99.90;;;;;;5028927;28;20221;-84
2023/01/16 04:41:35;;;;;;;17.60;10.07;;;4.00;99.90;;;;;;5029115;28;20213;-81
2023/01/16 04:44:00;;;;;;;16.73;9.80;;;4.00;99.90;;;;;;5028614;28;20206;-80
2023/01/16 04:46:27;;;;;;;13.33;9.50;;;3.90;99.90;;;;;;5047292;28;20622;-79
2023/01/16 04:48:54;;;;;;;18.23;10.67;;;3.90;99.90;;;;;;5048170;28;20297;-79
2023/01/16 04:51:21;;;;;;;12.93;8.67;;;3.90;99.90;;;;;;5046814;28;20612;-81
2023/01/16 04:53:50;;;;;;;12.17;8.83;;;3.90;99.90;;;;;;5037260;28;20212;-80
2023/01/16 04:56:17;;;;;;;13.93;8.90;;;3.90;99.90;;;;;;5028242;28;20225;-81
2023/01/16 04:58:44;;;;;;;16.57;8.77;;;3.90;99.90;;;;;;5027099;28;20288;-80
2023/01/16 05:01:10;;;;;;;15.07;8.40;;;3.90;99.90;;;;;;5029846;28;20877;-82
2023/01/16 05:03:37;;;;;;;13.83;7.80;;;3.90;99.90;;;;;;5030901;28;20210;-82
2023/01/16 05:06:05;;;;;;;12.87;7.53;;;3.90;99.90;;;;;;5029054;28;20230;-84
2023/01/16 05:08:31;;;;;;;11.83;6.37;;;3.80;99.90;;;;;;5028233;28;20329;-82
2023/01/16 05:11:01;;;;;;;11.33;6.80;;;3.80;99.90;;;;;;5028639;28;20241;-82
2023/01/16 05:13:28;;;;;;;8.37;6.33;;;3.80;99.90;;;;;;5035406;28;20214;-82
2023/01/16 05:15:55;;;;;;;9.57;6.43;;;3.80;99.90;;;;;;5047661;28;20195;-80
2023/01/16 05:18:22;;;;;;;9.63;6.07;;;3.80;99.90;;;;;;5048403;28;20202;-81
2023/01/16 05:20:49;;;;;;;12.60;5.97;;;3.80;99.90;;;;;;5047798;28;20206;-80
2023/01/16 05:23:16;;;;;;;7.80;5.23;;;3.90;99.90;;;;;;5040006;28;20313;-82
2023/01/16 05:25:44;;;;;;;10.93;5.73;;;3.90;99.90;;;;;;5028220;28;20951;-81
2023/01/16 05:28:12;;;;;;;10.37;5.60;;;3.90;99.90;;;;;;5028272;28;20213;-83
2023/01/16 05:30:39;;;;;;;9.07;5.17;;;3.90;99.90;;;;;;5027841;28;20307;-83
2023/01/16 05:33:06;;;;;;;9.77;5.10;;;3.90;99.90;;;;;;5027258;28;20676;-80
2023/01/16 05:35:33;;;;;;;8.37;4.50;;;3.90;99.90;;;;;;5027309;28;20202;-81
2023/01/16 05:38:00;;;;;;;7.87;4.87;;;3.90;99.90;;;;;;5028868;28;20309;-81
2023/01/16 05:40:27;;;;;;;8.33;4.03;;;4.00;99.90;;;;;;5026038;28;20211;-81
2023/01/16 05:42:54;;;;;;;10.43;4.20;;;3.90;99.90;;;;;;5025914;28;20224;-83
2023/01/16 05:45:23;;;;;;;7.30;3.90;;;3.90;99.90;;;;;;5025799;28;20226;-82
2023/01/16 05:47:50;;;;;;;12.23;4.33;;;3.90;99.90;;;;;;5025962;28;20207;-83
2023/01/16 05:50:17;;;;;;;7.87;4.37;;;3.90;99.90;;;;;;5025600;28;20869;-81
2023/01/16 05:52:44;;;;;;;7.07;4.50;;;3.90;99.90;;;;;;5025220;28;20207;-81
2023/01/16 05:55:11;;;;;;;9.60;4.30;;;3.90;99.90;;;;;;5025070;28;20203;-81
2023/01/16 05:57:38;;;;;;;7.77;4.27;;;3.90;99.90;;;;;;5025056;28;20199;-86
2023/01/16 06:00:06;;;;;;;7.80;4.27;;;3.90;99.90;;;;;;5029803;28;20318;-85
2023/01/16 06:02:35;;;;;;;8.13;3.77;;;3.90;99.90;;;;;;5029663;28;20284;-86
2023/01/16 06:05:02;;;;;;;4.43;3.10;;;3.90;99.90;;;;;;5039263;28;20312;-85
2023/01/16 06:07:29;;;;;;;9.90;3.40;;;4.00;99.90;;;;;;5048934;28;20797;-85
2023/01/16 06:09:56;;;;;;;11.27;3.23;;;4.00;99.90;;;;;;5048264;28;20290;-87
2023/01/16 06:12:23;;;;;;;6.97;3.53;;;4.00;99.90;;;;;;5047892;28;20300;-86
2023/01/16 06:14:50;;;;;;;7.00;3.07;;;4.00;99.90;;;;;;5046080;28;20684;-86
2023/01/16 06:17:18;;;;;;;6.03;2.70;;;4.00;99.90;;;;;;5044868;28;20607;-87
2023/01/16 06:19:47;;;;;;;9.27;3.03;;;4.10;99.90;;;;;;5027599;28;20210;-85
2023/01/16 06:22:14;;;;;;;8.97;3.40;;;4.10;99.90;;;;;;5031628;28;20298;-86
2023/01/16 06:24:41;;;;;;;7.43;2.67;;;4.10;99.90;;;;;;5031003;28;20238;-85
2023/01/16 06:27:08;;;;;;;4.90;2.73;;;4.10;99.90;;;;;;5032029;28;20261;-86
2023/01/16 06:29:36;;;;;;;10.00;3.00;;;4.10;99.90;;;;;;5030940;28;20294;-86
2023/01/16 06:32:03;;;;;;;10.37;3.37;;;4.10;99.90;;;;;;5031697;28;20226;-85
2023/01/16 06:34:30;;;;;;;7.63;2.67;;;4.20;99.90;;;;;;5031087;28;20249;-86
2023/01/16 06:36:58;;;;;;;7.07;3.27;;;4.20;99.90;;;;;;5031016;28;20277;-86
2023/01/16 06:39:25;;;;;;;15.37;3.33;;;4.20;99.90;;;;;;5031302;28;20339;-85
2023/01/16 06:41:52;;;;;;;12.73;2.97;;;4.20;99.90;;;;;;5050025;28;20206;-85
2023/01/16 06:44:19;;;;;;;9.60;3.23;;;4.20;99.90;;;;;;5046521;28;20253;-84
2023/01/16 06:46:46;;;;;;;7.40;2.80;;;4.20;99.90;;;;;;5050165;28;20335;-85
2023/01/16 06:49:13;;;;;;;8.40;2.53;;;4.30;99.90;;;;;;5049214;28;20307;-85
2023/01/16 06:51:41;;;;;;;4.93;2.47;;;4.30;99.90;;;;;;5030658;28;20298;-85
2023/01/16 06:54:10;;;;;;;6.00;2.80;;;4.30;99.90;;;;;;5031249;28;20748;-85
2023/01/16 06:56:37;;;;;;;6.37;2.73;;;4.30;99.90;;;;;;5030593;28;20230;-86
2023/01/16 06:59:04;;;;;;;11.63;3.33;;;4.30;99.90;;;;;;5030712;28;20280;-85
2023/01/16 07:01:31;;;;;;;6.27;3.60;;;4.40;99.90;;;;;;5030581;28;20194;-85
2023/01/16 07:03:58;;;;;;;6.83;2.90;;;4.40;99.90;;;;;;5031348;28;20473;-86
2023/01/16 07:06:25;;;;;;;7.87;3.27;;;4.40;99.90;;;;;;5030881;28;20653;-86
2023/01/16 07:08:53;;;;;;;8.70;3.07;;;4.40;99.90;;;;;;5031182;28;20317;-86
2023/01/16 07:11:22;;;;;;;22.00;3.30;;;4.40;99.90;;;;;;5030185;28;20201;-87
2023/01/16 07:13:49;;;;;;;9.90;2.87;;;4.50;99.90;;;;;;5027837;28;20199;-85
2023/01/16 07:24:36;;;;;;;15.27;3.33;;;4.60;99.90;;;;;;5028493;28;20546;-78
2023/01/16 07:27:08;;;;;;;5.93;3.13;;;4.60;99.90;;;;;;5044207;28;20234;-81
2023/01/16 07:29:38;;;;;;;8.73;2.43;;;4.60;99.90;;;;;;5043941;28;20604;-81
2023/01/16 07:32:05;;;;;;;9.13;2.77;;;4.60;99.90;;;;;;5044924;28;20247;-78
2023/01/16 07:34:34;;;;;;;6.77;2.33;;;4.60;99.90;;;;;;5035706;28;20218;-80
2023/01/16 07:37:01;;;;;;;7.40;2.83;;;4.60;99.90;;;;;;5026347;28;20289;-81
2023/01/16 07:39:28;;;;;;;6.17;2.57;;;4.60;99.90;;;;;;5028668;28;20199;-85
2023/01/16 07:41:55;;;;;;;8.70;2.67;;;4.60;99.90;;;;;;5040403;28;20237;-80
2023/01/16 07:44:24;;;;;;;9.13;2.50;;;4.60;99.90;;;;;;5045495;28;20202;-78
2023/01/16 07:46:50;;;;;;;9.07;2.67;;;4.60;99.90;;;;;;5047029;28;20226;-86
2023/01/16 07:49:17;;;;;;;8.87;2.97;;;4.60;99.90;;;;;;5048629;28;20296;-84
2023/01/16 07:51:44;;;;;;;6.93;2.70;;;4.60;99.90;;;;;;5048677;28;20225;-83
2023/01/16 07:54:13;;;;;;;6.33;2.07;;;4.60;99.90;;;;;;5049863;28;20211;-84
2023/01/16 07:56:39;;;;;;;4.07;2.23;;;4.50;99.90;;;;;;5049280;28;20194;-84
2023/01/16 07:59:07;;;;;;;6.47;2.40;;;4.60;99.90;;;;;;5048730;28;20281;-83
2023/01/16 08:01:36;;;;;;;7.33;2.40;;;4.60;99.90;;;;;;5046702;28;20945;-80
2023/01/16 08:04:02;;;;;;;4.80;1.93;;;4.50;99.90;;;;;;5045531;28;20205;-86
2023/01/16 08:06:29;;;;;;;5.67;2.43;;;4.60;99.90;;;;;;5026758;28;20249;-82
2023/01/16 08:08:56;;;;;;;7.10;1.97;;;4.60;99.90;;;;;;5026670;28;20234;-83
2023/01/16 08:11:38;;;;;;;8.07;2.30;;;4.50;99.90;;;;;;5026449;28;20300;-84
2023/01/16 08:17:44;;;;;;;3.50;2.20;;;4.60;99.90;;;;;;5022912;28;20196;-85
2023/01/16 08:20:12;;;;;;;5.83;2.60;;;4.60;99.90;;;;;;5047439;28;20205;-84
2023/01/16 08:22:44;;;;;;;3.23;2.13;;;4.50;99.90;;;;;;5041035;28;20212;-84
2023/01/16 08:25:11;;;;;;;5.40;2.00;;;4.50;99.90;;;;;;5049987;28;20217;-85
2023/01/16 08:27:37;;;;;;;4.23;2.53;;;4.50;99.90;;;;;;5049602;28;20222;-85
2023/01/16 08:30:05;;;;;;;4.60;2.47;;;4.50;99.90;;;;;;5048162;28;20941;-84
2023/01/16 08:32:32;;;;;;;4.23;2.03;;;4.50;99.90;;;;;;5046067;28;20237;-85
2023/01/16 08:35:03;;;;;;;5.43;2.10;;;4.50;99.90;;;;;;5053484;28;20291;-85
2023/01/16 08:37:30;;;;;;;3.10;2.00;;;4.50;99.90;;;;;;5041451;28;20214;-86
2023/01/16 08:39:57;;;;;;;3.60;2.10;;;4.50;99.90;;;;;;5034146;28;20199;-86
2023/01/16 08:51:23;;;;;;;2.17;1.80;;;4.40;99.90;;;;;;5013493;28;20206;-78
2023/01/16 08:53:50;;;;;;;2.90;2.23;;;4.40;99.90;;;;;;5027601;28;20214;-82
2023/01/16 08:56:17;;;;;;;2.17;1.97;;;4.40;99.90;;;;;;5030189;28;20290;-82
2023/01/16 08:58:44;;;;;;;3.53;2.20;;;4.40;99.90;;;;;;5044524;28;20280;-85
2023/01/16 09:01:11;;;;;;;2.80;1.77;;;4.40;99.90;;;;;;5072719;28;20309;-84
2023/01/16 09:03:38;;;;;;;2.87;1.87;;;4.40;99.90;;;;;;5066701;28;20209;-86
2023/01/16 09:06:07;;;;;;;1.97;1.77;;;4.30;99.90;;;;;;5052432;28;20202;-84
2023/01/16 09:08:33;;;;;;;2.73;2.20;;;4.30;99.90;;;;;;5054538;28;20279;-86
2023/01/16 09:13:50;;;;;;;2.87;2.40;;;4.30;99.90;;;;;;5061482;28;20197;-85
2023/01/16 09:16:18;;;;;;;2.50;2.13;;;4.30;99.90;;;;;;5050949;28;20179;-86
2023/01/16 09:18:45;;;;;;;5.13;2.83;;;4.30;99.90;;;;;;5049226;28;20598;-85
2023/01/16 09:21:13;;;;;;;5.07;3.10;;;4.30;99.90;;;;;;5050190;28;20634;-84
2023/01/16 09:23:40;;;;;;;4.63;2.93;;;4.30;99.90;;;;;;5034803;28;20998;-83
2023/01/16 09:26:07;;;;;;;6.43;3.50;;;4.40;99.90;;;;;;5028781;28;20302;-82
2023/01/16 09:28:34;;;;;;;4.03;3.30;;;4.30;99.90;;;;;;5040453;28;20289;-83
2023/01/16 09:31:01;;;;;;;3.50;3.20;;;4.40;99.90;;;;;;5044999;28;20229;-85
2023/01/16 09:33:28;;;;;;;4.33;3.53;;;4.40;99.90;;;;;;5028352;28;20198;-84
2023/01/16 09:35:55;;;;;;;5.57;3.47;;;4.40;99.90;;;;;;5032831;28;20207;-85
2023/01/16 09:38:23;;;;;;;4.67;3.30;;;4.40;99.90;;;;;;5055858;28;20288;-82
2023/01/16 09:40:55;;;;;;;4.30;3.20;;;4.40;99.90;;;;;;5066521;28;20292;-85
2023/01/16 09:43:35;;;;;;;4.43;3.40;;;4.40;99.90;;;;;;5036281;28;20198;-86
2023/01/16 09:46:05;;;;;;;8.00;4.37;;;4.50;99.90;;;;;;5051689;28;20225;-86
2023/01/16 09:48:34;;;;;;;4.37;3.50;;;4.50;99.90;;;;;;5052001;28;20259;-86
2023/01/16 09:51:04;;;;;;;4.73;3.43;;;4.50;99.90;;;;;;5051428;28;20779;-85
2023/01/16 09:59:33;;;;;;;6.33;3.80;;;4.50;99.90;;;;;;4990443;28;20195;-88
2023/01/16 10:02:08;;;;;;;4.30;3.47;;;4.60;99.90;;;;;;5039792;28;20524;-87
2023/01/16 10:04:36;;;;;;;4.63;3.90;;;4.60;99.90;;;;;;5051521;28;20640;-84
2023/01/16 10:07:46;;;;;;;6.87;3.70;;;4.60;99.90;;;;;;5045014;28;20231;-85
2023/01/16 10:10:39;;;;;;;4.63;3.97;;;4.60;99.90;;;;;;4990305;28;20261;-85
2023/01/16 10:13:24;;;;;;;5.30;4.13;;;4.70;99.90;;;;;;5028567;28;20212;-84
2023/01/16 10:16:03;;;;;;;4.47;4.07;;;4.70;99.90;;;;;;5042900;28;20835;-78
2023/01/16 10:18:39;;;;;;;5.83;4.57;;;4.70;99.90;;;;;;5040467;28;20209;-81
2023/01/16 10:21:21;;;;;;;5.63;4.43;;;4.70;99.90;;;;;;5044861;28;20205;-78
2023/01/16 10:23:54;;;;;;;6.43;5.00;;;4.80;99.90;;;;;;5043994;28;20202;-77
2023/01/16 10:26:29;;;;;;;6.27;4.70;;;4.80;99.90;;;;;;5045294;28;20609;-80
2023/01/16 10:29:02;;;;;;;5.50;5.00;;;4.80;99.90;;;;;;5042174;28;20294;-79
2023/01/16 10:31:33;;;;;;;5.63;5.13;;;4.90;99.90;;;;;;5025707;28;20296;-78
2023/01/16 10:34:04;;;;;;;7.63;5.70;;;4.90;99.90;;;;;;5025417;28;20245;-78
2023/01/16 10:36:36;;;;;;;9.37;5.90;;;4.90;99.90;;;;;;5031797;28;20304;-78
2023/01/16 10:39:03;;;;;;;8.57;6.10;;;4.90;99.90;;;;;;5044627;28;20202;-79
2023/01/16 10:50:02;;;;;;;7.77;4.70;;;5.10;99.90;;;;;;5026732;28;20256;-81
2023/01/16 10:52:29;;;;;;;6.27;4.43;;;5.10;99.90;;;;;;5030275;28;20271;-81
2023/01/16 10:54:58;;;;;;;4.40;4.00;;;5.10;99.90;;;;;;5026323;28;20289;-80
2023/01/16 10:57:27;;;;;;;5.03;4.63;;;5.10;99.90;;;;;;5025641;28;20222;-83
2023/01/16 11:00:00;;;;;;;4.17;3.77;;;5.10;99.90;;;;;;5045311;28;20296;-80
2023/01/16 11:02:31;;;;;;;5.20;4.00;;;5.10;99.90;;;;;;5045719;28;20597;-79
2023/01/16 11:05:01;;;;;;;6.20;3.77;;;5.10;99.90;;;;;;5034088;28;20778;-78
2023/01/16 11:07:30;;;;;;;3.50;3.13;;;5.20;99.90;;;;;;5025863;28;20300;-85
2023/01/16 11:09:59;;;;;;;4.70;3.30;;;5.10;99.90;;;;;;5026621;28;20242;-84
2023/01/16 11:21:16;;;;;;;2.30;1.50;;;5.10;99.90;;;;;;5035302;28;20202;-88
2023/01/16 11:23:45;;;;;;;2.37;1.40;;;5.10;99.90;;;;;;5045622;28;20503;-80
2023/01/16 11:26:13;;;;;;;1.83;1.73;;;5.00;99.90;;;;;;5045437;28;20292;-83
2023/01/16 11:28:44;;;;;;;1.50;1.40;;;5.00;99.90;;;;;;5036568;28;20770;-79
2023/01/16 11:31:19;;;;;;;1.40;1.27;;;5.00;99.90;;;;;;5026803;28;20205;-83
2023/01/16 11:33:49;;;;;;;2.67;1.70;;;4.90;99.90;;;;;;5024851;28;20206;-80
2023/01/16 11:36:18;;;;;;;2.73;1.60;;;5.00;99.90;;;;;;5025052;28;20213;-80
2023/01/16 11:38:47;;;;;;;1.93;1.43;;;4.90;99.90;;;;;;5025103;28;20198;-83
2023/01/16 11:41:19;;;;;;;3.10;1.60;;;4.90;99.90;;;;;;5025275;28;20207;-80
2023/01/16 11:46:57;;;;;;;4.03;1.70;;;4.90;99.90;;;;;;5032231;28;20223;-79
2023/01/16 11:49:27;;;;;;;1.70;1.60;;;5.00;99.90;;;;;;5042910;28;20231;-81
2023/01/16 11:51:56;;;;;;;3.93;1.70;;;4.90;99.90;;;;;;5037517;28;20198;-79
2023/01/16 11:54:27;;;;;;;3.43;1.80;;;4.90;99.90;;;;;;5023413;28;20225;-80
2023/01/16 11:57:26;;;;;;;2.20;2.00;;;4.90;99.90;;;;;;5023387;28;20238;-81
2023/01/16 12:00:23;;;;;;;2.93;1.90;;;4.90;99.90;;;;;;5018360;28;20195;-80
2023/01/16 12:03:39;;;;;;;2.03;1.77;;;5.00;99.90;;;;;;5023782;28;20244;-81
2023/01/16 12:06:15;;;;;;;4.67;2.50;;;4.90;99.90;;;;;;5018854;28;20209;-84
2023/01/16 12:09:04;;;;;;;2.90;2.23;;;5.00;99.90;;;;;;5026696;28;20250;-79
2023/01/16 12:11:46;;;;;;;3.60;2.27;;;5.00;99.90;;;;;;5027692;28;20209;-80
2023/01/16 12:14:22;;;;;;;3.30;2.40;;;5.00;99.90;;;;;;5027749;28;20944;-86
2023/01/16 12:17:17;;;;;;;4.20;2.20;;;5.00;99.90;;;;;;5040905;28;20371;-82
2023/01/16 12:20:00;;;;;;;2.97;2.10;;;5.00;99.90;;;;;;5047465;28;20208;-84
2023/01/16 12:22:39;;;;;;;2.77;1.87;;;5.00;99.90;;;;;;5033235;28;20186;-85
2023/01/16 12:25:19;;;;;;;2.40;1.97;;;5.00;99.90;;;;;;5026036;28;20280;-87
2023/01/16 12:27:58;;;;;;;2.70;1.90;;;5.00;99.90;;;;;;5026090;28;20515;-81
2023/01/16 12:30:34;;;;;;;2.97;1.90;;;5.00;99.90;;;;;;5026284;28;20601;-79
2023/01/16 12:33:13;;;;;;;2.40;2.20;;;5.00;99.90;;;;;;5028605;28;20590;-80
2023/01/16 12:35:51;;;;;;;2.47;2.10;;;5.00;99.90;;;;;;5037589;28;20237;-82
2023/01/16 12:38:20;;;;;;;3.90;2.23;;;5.00;99.90;;;;;;5047863;28;20348;-79
2023/01/16 12:44:17;;;;;;;3.60;2.30;;;5.10;99.90;;;;;;5027412;28;20740;-80
2023/01/16 12:46:54;;;;;;;3.93;2.23;;;5.10;99.90;;;;;;5040446;28;20228;-89
2023/01/16 12:49:40;;;;;;;3.10;2.47;;;5.10;99.90;;;;;;5049055;28;20210;-85
2023/01/16 12:52:21;;;;;;;3.07;2.70;;;5.10;99.90;;;;;;5048383;28;20236;-82
2023/01/16 12:55:04;;;;;;;3.03;2.70;;;5.10;99.90;;;;;;5048352;28;20190;-80
2023/01/16 12:57:51;;;;;;;4.73;3.07;;;5.10;99.90;;;;;;5048451;28;20194;-86
2023/01/16 13:00:21;;;;;;;4.97;2.30;;;5.20;99.90;;;;;;5039588;28;20199;-81
2023/01/16 13:02:55;;;;;;;3.10;2.60;;;5.20;99.90;;;;;;5029907;28;20212;-80
2023/01/16 13:05:27;;;;;;;2.97;2.23;;;5.20;99.90;;;;;;5033198;28;20197;-82
2023/01/16 13:08:00;;;;;;;3.30;2.80;;;5.20;99.90;;;;;;5047531;28;20364;-81
2023/01/16 13:13:22;;;;;;;2.80;2.53;;;5.20;99.90;;;;;;5045559;28;20515;-79
2023/01/16 13:15:55;;;;;;;3.33;2.63;;;5.20;99.90;;;;;;5029017;28;20622;-79
2023/01/16 13:18:26;;;;;;;3.50;2.90;;;5.20;99.90;;;;;;5026179;28;20333;-82
2023/01/16 13:20:58;;;;;;;3.67;2.90;;;5.30;99.90;;;;;;5025947;28;20230;-80
2023/01/16 13:23:27;;;;;;;2.57;2.37;;;5.30;99.90;;;;;;5027122;28;20201;-83
2023/01/16 13:25:59;;;;;;;4.57;3.47;;;5.30;99.90;;;;;;5027401;28;20210;-82
2023/01/16 13:28:36;;;;;;;2.73;2.50;;;5.30;99.90;;;;;;5026893;28;20229;-79
2023/01/16 13:31:07;;;;;;;3.67;3.23;;;5.30;99.90;;;;;;5027783;28;20403;-82
2023/01/16 13:33:39;;;;;;;2.97;2.50;;;5.30;99.90;;;;;;5027547;28;20292;-82
2023/01/16 13:36:25;;;;;;;4.53;2.90;;;5.40;99.90;;;;;;5029869;28;20202;-82
2023/01/16 13:39:06;;;;;;;2.83;2.60;;;5.40;99.90;;;;;;5045769;28;20611;-80
2023/01/16 13:41:36;;;;;;;3.47;3.17;;;5.40;99.90;;;;;;5047555;28;20637;-90
2023/01/16 13:46:53;;;;;;;3.37;3.07;;;5.40;99.90;;;;;;5035070;28;20241;-79
2023/01/16 13:49:24;;;;;;;6.97;3.00;;;5.50;99.90;;;;;;5044461;28;20218;-79
2023/01/16 13:51:53;;;;;;;3.63;3.20;;;5.50;99.90;;;;;;5046101;28;20297;-83
2023/01/16 13:54:25;;;;;;;3.97;3.13;;;5.50;99.90;;;;;;5040692;28;20292;-91
2023/01/16 13:57:00;;;;;;;4.60;3.30;;;5.50;99.90;;;;;;5030358;28;20195;-80
2023/01/16 13:59:39;;;;;;;4.10;3.20;;;5.50;99.90;;;;;;5027728;28;20210;-79
2023/01/16 14:02:25;;;;;;;4.10;3.40;;;5.60;99.90;;;;;;5027155;28;20748;-78
2023/01/16 14:05:31;;;;;;;4.87;4.37;;;5.50;99.90;;;;;;5025310;28;20226;-79
2023/01/16 14:11:41;;;;;;;4.33;3.93;;;5.50;99.90;;;;;;5024967;28;20221;-78
2023/01/16 14:17:21;;;;;;;4.97;4.50;;;5.50;99.90;;;;;;5026522;28;20193;-84
2023/01/16 14:19:55;;;;;;;4.40;4.00;;;5.50;99.90;;;;;;5026436;28;20632;-78
2023/01/16 14:25:20;;;;;;;6.73;5.30;;;5.60;99.90;;;;;;5025379;28;20328;-79
2023/01/16 14:27:52;;;;;;;6.83;4.77;;;5.60;99.90;;;;;;5024615;28;20697;-80
2023/01/16 14:30:21;;;;;;;6.03;4.70;;;5.60;99.90;;;;;;5024778;28;20587;-80